Time;durP1;ratioP1;P1;durP2;ratioP2;P2;SDS_P1;SDS_P2;PMS_P1;PMS_P2;Temp;Humidity;BMP_temperature;BMP_pressure;BME280_temperature;BME280_humidity;BME280_pressure;Samples;Min_cycle;Max_cycle;Signal;HPM_P1;HPM_P2
2024/01/14 00:00:43;;;;;;;40.28;23.77;;;;;;;-2.10;100.00;100169.81;5009113;28;20033;-70
2024/01/14 00:03:08;;;;;;;39.15;23.90;;;;;;;-2.40;100.00;100159.91;5028701;28;20120;-70
2024/01/14 00:05:34;;;;;;;39.33;22.80;;;;;;;-2.36;100.00;100116.03;5028402;28;20025;-70
2024/01/14 00:07:59;;;;;;;37.75;22.92;;;;;;;-2.77;100.00;100108.34;5028513;28;20476;-70
2024/01/14 00:10:24;;;;;;;37.70;21.90;;;;;;;-2.36;100.00;100144.25;5010699;28;20041;-70
2024/01/14 00:12:50;;;;;;;40.00;21.23;;;;;;;-2.33;100.00;100150.94;5028225;28;20112;-70
2024/01/14 00:15:17;;;;;;;49.55;23.77;;;;;;;-2.83;100.00;100114.78;5028426;28;20389;-71
2024/01/14 00:17:43;;;;;;;55.55;25.75;;;;;;;-2.42;100.00;100154.06;5028102;28;20495;-70
2024/01/14 00:20:09;;;;;;;45.75;24.20;;;;;;;-2.75;100.00;100141.53;5028189;28;20037;-70
2024/01/14 00:22:34;;;;;;;39.97;22.75;;;;;;;-2.59;100.00;100142.78;5027858;28;20053;-70
2024/01/14 00:25:00;;;;;;;37.85;22.73;;;;;;;-2.60;100.00;100138.63;5027776;28;20485;-70
2024/01/14 00:27:25;;;;;;;39.13;22.38;;;;;;;-2.51;100.00;100155.44;5010861;28;20033;-70
2024/01/14 00:29:51;;;;;;;38.00;23.02;;;;;;;-2.84;100.00;100135.47;5027965;28;20033;-72
2024/01/14 00:32:16;;;;;;;39.42;22.80;;;;;;;-2.51;100.00;100140.50;5026444;28;20407;-70
2024/01/14 00:34:41;;;;;;;38.83;21.27;;;;;;;-2.45;100.00;100104.19;5027767;28;20030;-70
2024/01/14 00:37:07;;;;;;;36.85;21.95;;;;;;;-2.91;100.00;100072.31;5028225;28;20033;-70
2024/01/14 00:39:39;;;;;;;35.75;21.85;;;;;;;-2.53;100.00;100120.56;5028109;28;20079;-70
2024/01/14 00:42:06;;;;;;;36.17;21.58;;;;;;;-2.50;100.00;100107.38;5031649;28;20033;-71
2024/01/14 00:44:31;;;;;;;38.60;22.17;;;;;;;-2.45;100.00;100088.41;5014239;28;20082;-70
2024/01/14 00:46:57;;;;;;;37.13;22.15;;;;;;;-2.42;100.00;100079.41;5014810;28;20037;-70
2024/01/14 00:49:22;;;;;;;38.28;22.88;;;;;;;-2.61;100.00;100072.25;5032447;28;20040;-70
2024/01/14 00:51:48;;;;;;;43.70;24.27;;;;;;;-2.57;100.00;100060.78;5014496;28;20404;-70
2024/01/14 00:54:13;;;;;;;41.08;23.70;;;;;;;-2.57;100.00;100068.25;5014142;28;20029;-70
2024/01/14 00:56:39;;;;;;;43.58;24.63;;;;;;;-2.60;100.00;100060.69;5014072;28;20025;-70
2024/01/14 00:59:04;;;;;;;43.15;24.85;;;;;;;-2.10;100.00;100110.88;5031363;28;20418;-71
2024/01/14 01:01:30;;;;;;;41.47;23.70;;;;;;;-2.84;100.00;100059.25;5031863;28;20113;-71
2024/01/14 01:03:55;;;;;;;38.13;22.25;;;;;;;-2.50;100.00;100098.28;5014305;28;20584;-73
2024/01/14 01:06:21;;;;;;;45.13;24.30;;;;;;;-2.42;100.00;100099.31;5031072;28;20140;-70
2024/01/14 01:08:47;;;;;;;44.50;26.55;;;;;;;-2.56;100.00;100068.28;5031393;28;20406;-71
2024/01/14 01:11:16;;;;;;;47.17;27.42;;;;;;;-2.14;100.00;100093.38;5013285;28;20029;-70
2024/01/14 01:13:41;;;;;;;52.13;29.50;;;;;;;-2.38;100.00;100093.63;5014013;28;20426;-70
2024/01/14 01:16:06;;;;;;;46.28;28.40;;;;;;;-2.54;100.00;100091.53;5031642;28;20033;-70
2024/01/14 01:18:32;;;;;;;48.75;29.92;;;;;;;-2.59;100.00;100107.97;5012938;28;20101;-70
2024/01/14 01:20:57;;;;;;;53.75;29.70;;;;;;;-2.56;100.00;100084.84;5014104;28;20025;-71
2024/01/14 01:23:23;;;;;;;56.88;30.75;;;;;;;-2.67;100.00;100101.94;5031103;28;20197;-69
2024/01/14 01:25:48;;;;;;;54.75;32.13;;;;;;;-2.95;100.00;100072.19;5013983;28;20166;-71
2024/01/14 01:28:14;;;;;;;53.00;30.65;;;;;;;-2.88;100.00;100079.88;5013724;28;20112;-71
2024/01/14 01:30:39;;;;;;;49.83;29.40;;;;;;;-3.06;100.00;100071.91;5012959;28;20120;-71
2024/01/14 01:33:04;;;;;;;49.42;28.85;;;;;;;-2.69;100.00;100103.56;5013243;28;20040;-70
2024/01/14 01:35:30;;;;;;;54.22;30.20;;;;;;;-3.11;100.00;100072.59;5031238;28;20096;-70
2024/01/14 01:37:55;;;;;;;51.35;29.40;;;;;;;-2.69;100.00;100068.75;5013089;28;20407;-71
2024/01/14 01:40:21;;;;;;;53.97;29.08;;;;;;;-2.32;100.00;100110.34;5012844;28;20091;-70
2024/01/14 01:42:47;;;;;;;51.08;28.83;;;;;;;-2.36;100.00;100104.44;5030566;28;20052;-70
2024/01/14 01:45:12;;;;;;;49.30;28.75;;;;;;;-2.35;100.00;100098.66;5013250;28;20041;-69
2024/01/14 01:47:39;;;;;;;48.90;28.92;;;;;;;-2.73;100.00;100054.53;5012558;28;20037;-70
2024/01/14 01:50:05;;;;;;;48.30;28.80;;;;;;;-2.59;100.00;100057.41;5030934;28;20403;-70
2024/01/14 01:52:30;;;;;;;56.33;31.38;;;;;;;-2.78;100.00;100051.09;5030060;28;20025;-72
2024/01/14 01:54:56;;;;;;;59.40;32.40;;;;;;;-2.75;100.00;100058.63;5031001;28;20030;-70
2024/01/14 01:57:22;;;;;;;61.65;34.33;;;;;;;-2.89;100.00;100074.81;5030414;28;20123;-70
2024/01/14 01:59:48;;;;;;;60.03;35.08;;;;;;;-2.97;100.00;100104.47;5030588;28;20021;-70
2024/01/14 02:02:14;;;;;;;58.65;34.85;;;;;;;-3.27;100.00;100036.53;5012426;28;20021;-70
2024/01/14 02:04:40;;;;;;;62.00;37.08;;;;;;;-2.42;100.00;100109.28;5030430;28;20057;-70
2024/01/14 02:07:06;;;;;;;65.32;37.20;;;;;;;-3.29;100.00;100079.53;5030105;28;20034;-70
2024/01/14 02:09:33;;;;;;;73.07;38.08;;;;;;;-2.94;100.00;100062.28;5030343;28;20524;-70
2024/01/14 02:12:00;;;;;;;69.40;37.78;;;;;;;-2.61;100.00;100118.72;5012635;28;20034;-70
2024/01/14 02:14:25;;;;;;;68.57;38.75;;;;;;;-2.59;100.00;100127.88;5030397;28;20029;-70
2024/01/14 02:16:53;;;;;;;73.88;41.60;;;;;;;-2.80;100.00;100107.41;5011978;28;20037;-69
2024/01/14 02:19:18;;;;;;;68.55;38.63;;;;;;;-3.01;100.00;100116.78;5029726;28;20446;-70
2024/01/14 02:21:51;;;;;;;58.00;34.63;;;;;;;-2.80;100.00;100072.59;5011881;28;20025;-70
2024/01/14 02:24:43;;;;;;;59.22;34.15;;;;;;;-3.01;100.00;100091.91;5029722;28;20049;-70
2024/01/14 02:27:09;;;;;;;51.40;28.23;;;;;;;-3.21;100.00;100110.41;5026915;28;20049;-70
2024/01/14 02:29:37;;;;;;;45.83;27.38;;;;;;;-3.14;100.00;100077.44;5029596;28;20095;-70
2024/01/14 02:32:09;;;;;;;50.17;27.98;;;;;;;-3.00;100.00;100133.38;5029982;28;20080;-70
2024/01/14 02:34:35;;;;;;;46.50;27.80;;;;;;;-3.25;100.00;100087.13;5011918;28;20036;-70
2024/01/14 02:37:01;;;;;;;50.33;28.20;;;;;;;-2.90;100.00;100083.09;5012433;28;20095;-69
2024/01/14 02:39:27;;;;;;;48.85;28.15;;;;;;;-3.03;100.00;100125.84;5011348;28;20057;-69
2024/01/14 02:41:53;;;;;;;49.78;29.20;;;;;;;-3.08;100.00;100132.31;5011330;28;20537;-68
2024/01/14 02:44:18;;;;;;;55.42;31.42;;;;;;;-3.39;100.00;100122.28;5029195;28;20199;-68
2024/01/14 02:46:44;;;;;;;51.65;31.30;;;;;;;-3.56;100.00;100089.47;5029031;28;20120;-68
2024/01/14 02:49:09;;;;;;;54.92;31.17;;;;;;;-2.95;100.00;100136.84;5011710;28;20029;-69
2024/01/14 02:51:35;;;;;;;53.83;29.75;;;;;;;-3.13;100.00;100141.28;5029188;28;20041;-70
2024/01/14 02:54:02;;;;;;;49.67;28.23;;;;;;;-3.21;100.00;100103.75;5028998;28;20060;-70
2024/01/14 02:56:28;;;;;;;50.22;27.38;;;;;;;-2.81;100.00;100131.44;5011700;28;20071;-69
2024/01/14 02:58:53;;;;;;;48.70;26.92;;;;;;;-2.92;100.00;100132.78;5011856;28;21407;-70
2024/01/14 03:01:18;;;;;;;48.22;26.52;;;;;;;-2.89;100.00;100132.84;5011079;28;20039;-70
2024/01/14 03:03:44;;;;;;;48.05;27.58;;;;;;;-2.76;100.00;100137.38;5010946;28;20048;-69
2024/01/14 03:06:09;;;;;;;46.90;27.55;;;;;;;-3.16;100.00;100103.91;5028605;28;20415;-70
2024/01/14 03:08:34;;;;;;;48.53;27.17;;;;;;;-2.95;100.00;100142.63;5028330;28;20118;-70
2024/01/14 03:11:00;;;;;;;47.53;26.67;;;;;;;-3.28;100.00;100133.38;5028715;28;20443;-70
2024/01/14 03:13:26;;;;;;;42.47;25.00;;;;;;;-3.15;100.00;100136.25;5011594;28;20095;-69
2024/01/14 03:15:52;;;;;;;46.90;25.95;;;;;;;-2.99;100.00;100135.88;5029132;28;20495;-70
2024/01/14 03:18:17;;;;;;;48.92;26.08;;;;;;;-3.12;100.00;100111.50;5010801;28;20032;-69
2024/01/14 03:20:43;;;;;;;67.57;33.95;;;;;;;-3.39;100.00;100103.25;5027835;28;20488;-69
2024/01/14 03:23:08;;;;;;;49.55;28.42;;;;;;;-3.51;100.00;100105.38;5028689;28;20045;-69
2024/01/14 03:25:34;;;;;;;51.80;27.55;;;;;;;-3.22;100.00;100133.53;5028583;28;20043;-70
2024/01/14 03:27:59;;;;;;;46.38;24.80;;;;;;;-3.31;100.00;100133.28;5010738;28;20030;-69
2024/01/14 03:30:25;;;;;;;40.78;23.48;;;;;;;-3.75;100.00;100137.75;5010630;28;20176;-68
2024/01/14 03:32:50;;;;;;;51.90;29.25;;;;;;;-3.81;100.00;100107.78;5011181;28;20114;-68
2024/01/14 03:35:15;;;;;;;49.25;26.25;;;;;;;-3.99;100.00;100146.06;5010534;28;20116;-70
2024/01/14 03:37:41;;;;;;;43.30;24.42;;;;;;;-3.73;100.00;100156.03;5028039;28;20516;-68
2024/01/14 03:40:07;;;;;;;41.33;24.15;;;;;;;-3.70;100.00;100153.63;5009520;28;20071;-69
2024/01/14 03:42:32;;;;;;;47.20;27.33;;;;;;;-3.70;100.00;100166.03;5010304;28;20025;-68
2024/01/14 03:44:58;;;;;;;50.03;30.13;;;;;;;-3.82;100.00;100158.19;5028011;28;20532;-68
2024/01/14 03:47:23;;;;;;;54.97;31.65;;;;;;;-3.93;100.00;100123.91;5028182;28;20037;-68
2024/01/14 03:49:49;;;;;;;50.35;30.58;;;;;;;-4.03;100.00;100156.69;5010684;28;20040;-70
2024/01/14 03:52:14;;;;;;;42.75;24.98;;;;;;;-4.08;100.00;100176.38;5027552;28;20045;-68
2024/01/14 03:54:40;;;;;;;42.63;25.02;;;;;;;-4.06;100.00;100173.97;5028137;28;20032;-68
2024/01/14 03:57:05;;;;;;;40.72;24.52;;;;;;;-3.94;100.00;100132.16;5009376;28;20057;-73
2024/01/14 03:59:31;;;;;;;41.85;24.33;;;;;;;-0.20;100.00;100049.13;5028274;28;20030;-71
2024/01/14 04:01:56;;;;;;;39.47;22.48;;;;;;;-3.65;100.00;100010.63;5028947;28;20556;-74
2024/01/14 04:04:22;;;;;;;40.38;22.83;;;;;;;-3.78;100.00;99990.31;5028830;28;20396;-73
2024/01/14 04:06:47;;;;;;;43.13;23.30;;;;;;;-4.23;100.00;99965.00;5028802;28;20034;-73
2024/01/14 04:09:13;;;;;;;41.08;23.60;;;;;;;-3.67;100.00;99997.31;5010104;28;20040;-73
2024/01/14 04:11:38;;;;;;;42.08;24.58;;;;;;;-3.78;100.00;100002.75;5014905;28;20467;-74
2024/01/14 04:14:04;;;;;;;37.70;22.25;;;;;;;-4.00;100.00;99961.56;5032687;28;20107;-72
2024/01/14 04:16:37;;;;;;;39.83;23.83;;;;;;;-3.92;100.00;99999.03;5030731;28;20044;-71
2024/01/14 04:19:02;;;;;;;40.42;24.30;;;;;;;-4.19;100.00;99984.16;5030196;28;20052;-72
2024/01/14 04:21:28;;;;;;;42.65;25.02;;;;;;;-4.12;100.00;99972.78;5030006;28;20108;-70
2024/01/14 04:23:53;;;;;;;41.95;23.63;;;;;;;-4.18;100.00;100009.81;5029483;28;20132;-72
2024/01/14 04:26:20;;;;;;;40.65;22.30;;;;;;;-4.26;100.00;99977.34;5031262;28;20079;-72
2024/01/14 04:28:46;;;;;;;39.55;23.13;;;;;;;-4.22;100.00;99984.06;5029025;28;20038;-71
2024/01/14 04:31:12;;;;;;;41.17;22.85;;;;;;;-3.87;100.00;100008.31;5013572;28;20033;-72
2024/01/14 04:33:37;;;;;;;44.35;24.73;;;;;;;-4.16;100.00;100023.09;5030849;28;20434;-72
2024/01/14 04:36:04;;;;;;;45.38;24.50;;;;;;;-4.38;100.00;99983.53;5011330;28;20487;-73
2024/01/14 04:38:29;;;;;;;48.15;24.88;;;;;;;-4.32;100.00;100026.75;5030842;28;20026;-72
2024/01/14 04:40:55;;;;;;;43.15;25.30;;;;;;;-4.38;100.00;99981.06;5026571;28;21493;-72
2024/01/14 04:43:21;;;;;;;46.42;25.65;;;;;;;-4.21;100.00;100045.28;5028882;28;20029;-73
2024/01/14 04:45:46;;;;;;;43.33;24.13;;;;;;;-4.23;100.00;100032.00;5028737;28;20029;-72
2024/01/14 04:48:12;;;;;;;41.50;22.80;;;;;;;-4.68;100.00;100028.03;5013677;28;20068;-73
2024/01/14 04:50:39;;;;;;;43.75;24.73;;;;;;;-4.54;100.00;100029.34;5014100;28;20084;-74
2024/01/14 04:53:06;;;;;;;80.03;37.17;;;;;;;-3.63;100.00;100037.97;5029692;28;20411;-73
2024/01/14 04:55:31;;;;;;;63.25;34.25;;;;;;;-4.51;100.00;100034.38;5030870;28;20060;-73
2024/01/14 04:57:57;;;;;;;57.40;31.58;;;;;;;-4.22;100.00;100070.91;5016166;28;20033;-75
2024/01/14 05:00:25;;;;;;;62.70;33.28;;;;;;;-4.03;100.00;100060.75;5031119;28;20030;-74
2024/01/14 05:02:50;;;;;;;59.58;31.05;;;;;;;-4.13;100.00;100083.59;5029118;28;20036;-73
2024/01/14 05:05:16;;;;;;;54.17;32.35;;;;;;;-4.19;100.00;100031.28;5032392;28;20429;-71
2024/01/14 05:07:42;;;;;;;65.18;37.65;;;;;;;-4.35;100.00;100090.28;5027549;28;20495;-73
2024/01/14 05:10:08;;;;;;;65.15;36.75;;;;;;;-4.33;100.00;100089.53;5011849;28;20506;-72
2024/01/14 05:12:33;;;;;;;57.88;34.30;;;;;;;-4.28;100.00;100075.66;4995113;28;20460;-76
2024/01/14 05:14:59;;;;;;;55.03;32.55;;;;;;;-2.61;100.00;100076.41;5028314;28;20121;-71
2024/01/14 05:17:25;;;;;;;68.68;39.35;;;;;;;-3.03;100.00;100081.91;5028575;28;20060;-74
2024/01/14 05:19:51;;;;;;;63.22;35.83;;;;;;;-4.38;100.00;100074.50;5009706;28;20060;-71
2024/01/14 05:22:16;;;;;;;64.63;33.67;;;;;;;-4.40;100.00;100082.69;5008314;28;20515;-74
2024/01/14 05:24:42;;;;;;;85.50;46.83;;;;;;;-4.09;100.00;100060.56;5010413;28;20033;-72
2024/01/14 05:27:09;;;;;;;106.35;56.65;;;;;;;-4.14;100.00;100057.06;5010939;28;20091;-70
2024/01/14 05:29:38;;;;;;;102.25;56.22;;;;;;;-3.88;100.00;100056.25;5029602;28;20044;-70
2024/01/14 05:32:04;;;;;;;101.07;55.20;;;;;;;-4.50;100.00;100017.06;5029685;28;20836;-70
2024/01/14 05:34:29;;;;;;;96.07;53.03;;;;;;;-4.12;100.00;100019.94;5012009;28;20037;-68
2024/01/14 05:36:55;;;;;;;95.80;53.97;;;;;;;-4.43;100.00;100004.09;5012492;28;20045;-69
2024/01/14 05:39:20;;;;;;;89.97;49.90;;;;;;;-4.30;100.00;100009.44;5013592;28;20099;-69
2024/01/14 05:41:46;;;;;;;79.57;44.53;;;;;;;-4.13;100.00;100031.47;5030413;28;20037;-70
2024/01/14 05:44:11;;;;;;;78.57;43.60;;;;;;;-4.46;100.00;99994.06;5029710;28;20525;-69
2024/01/14 05:46:37;;;;;;;75.50;43.90;;;;;;;-4.68;100.00;99973.50;5012194;28;20037;-69
2024/01/14 05:49:02;;;;;;;65.82;36.30;;;;;;;-4.32;100.00;100001.09;5012418;28;20431;-69
2024/01/14 05:51:28;;;;;;;69.55;39.45;;;;;;;-4.51;100.00;99972.38;5011936;28;20029;-69
2024/01/14 05:53:53;;;;;;;57.67;32.90;;;;;;;-4.31;100.00;100007.72;5012470;28;20036;-69
2024/01/14 05:56:26;;;;;;;62.03;33.42;;;;;;;-4.75;100.00;100009.63;5012635;28;20061;-68
2024/01/14 05:58:52;;;;;;;55.03;30.67;;;;;;;-4.82;100.00;99999.47;5030349;28;20037;-69
2024/01/14 06:01:18;;;;;;;49.95;29.35;;;;;;;-5.17;100.00;99940.47;5029915;28;20113;-68
2024/01/14 06:03:43;;;;;;;51.13;28.02;;;;;;;-4.97;100.00;99961.81;5011455;28;20116;-68
2024/01/14 06:06:09;;;;;;;48.95;27.95;;;;;;;-4.41;100.00;99999.16;5030477;28;20103;-69
2024/01/14 06:08:34;;;;;;;169.88;93.68;;;;;;;-4.40;100.00;99976.06;5030699;28;20026;-69
2024/01/14 06:11:02;;;;;;;111.07;63.03;;;;;;;-4.33;100.00;100011.78;5030407;28;20017;-69
2024/01/14 06:13:27;;;;;;;92.70;40.50;;;;;;;-4.97;100.00;99923.00;5030234;28;20025;-72
2024/01/14 06:15:52;;;;;;;63.25;33.53;;;;;;;-4.91;100.00;99979.34;5012108;28;20116;-69
2024/01/14 06:18:18;;;;;;;74.07;34.53;;;;;;;-5.13;100.00;99989.34;5030126;28;20033;-71
2024/01/14 06:20:43;;;;;;;70.88;33.47;;;;;;;-4.72;100.00;100009.75;5029718;28;20030;-69
2024/01/14 06:23:09;;;;;;;55.55;28.02;;;;;;;-4.42;100.00;100015.66;5030217;28;20041;-71
2024/01/14 06:25:34;;;;;;;53.75;29.73;;;;;;;-2.24;100.00;99987.75;5028617;28;20034;-69
2024/01/14 06:28:02;;;;;;;52.00;30.20;;;;;;;-1.56;100.00;100000.84;5029986;28;20099;-71
2024/01/14 06:30:28;;;;;;;49.20;27.73;;;;;;;-1.89;100.00;100006.84;5029034;28;20029;-69
2024/01/14 06:32:56;;;;;;;43.10;23.73;;;;;;;-1.53;100.00;100011.75;5030541;28;20036;-69
2024/01/14 06:35:22;;;;;;;41.15;23.23;;;;;;;-0.86;100.00;99956.50;5011611;28;20037;-69
2024/01/14 06:37:48;;;;;;;48.45;26.98;;;;;;;-1.31;100.00;100040.44;5030324;28;20136;-69
2024/01/14 06:40:13;;;;;;;54.38;29.77;;;;;;;-0.65;100.00;99998.47;5028771;28;20029;-69
2024/01/14 06:42:39;;;;;;;51.35;31.30;;;;;;;0.20;100.00;100023.09;5012498;28;20036;-69
2024/01/14 06:45:06;;;;;;;41.97;24.45;;;;;;;-0.87;100.00;100052.09;5029445;28;20415;-69
2024/01/14 06:47:31;;;;;;;41.80;26.63;;;;;;;-0.54;100.00;100040.25;5029705;28;20418;-69
2024/01/14 06:49:57;;;;;;;48.38;28.02;;;;;;;-0.35;100.00;100024.75;5011211;28;20033;-69
2024/01/14 06:52:22;;;;;;;58.85;34.88;;;;;;;0.05;100.00;100040.34;5011858;28;20112;-69
2024/01/14 06:54:51;;;;;;;79.00;37.13;;;;;;;0.24;100.00;100057.31;5011582;28;20487;-69
2024/01/14 06:57:16;;;;;;;54.92;30.75;;;;;;;-1.30;100.00;99987.25;5029815;28;20033;-69
2024/01/14 06:59:42;;;;;;;45.30;27.92;;;;;;;-1.63;100.00;100063.84;5029408;28;20083;-70
2024/01/14 07:02:08;;;;;;;50.28;28.58;;;;;;;-1.82;100.00;100032.69;5029914;28;20404;-71
2024/01/14 07:04:34;;;;;;;45.28;27.27;;;;;;;-0.74;100.00;100003.28;5028997;28;20103;-72
2024/01/14 07:07:00;;;;;;;48.42;30.27;;;;;;;0.79;100.00;100065.53;5029756;28;20036;-71
2024/01/14 07:09:25;;;;;;;51.42;31.73;;;;;;;0.27;100.00;100067.34;5029856;28;20025;-71
2024/01/14 07:11:51;;;;;;;45.03;27.85;;;;;;;0.06;100.00;100034.53;5012096;28;20044;-70
2024/01/14 07:14:16;;;;;;;46.53;27.55;;;;;;;0.16;100.00;100057.16;5011659;28;20042;-71
2024/01/14 07:16:41;;;;;;;60.97;35.70;;;;;;;0.12;100.00;100052.13;5028990;28;20044;-69
2024/01/14 07:19:07;;;;;;;46.28;27.98;;;;;;;-0.75;100.00;100057.31;5011492;28;20025;-70
2024/01/14 07:21:32;;;;;;;47.15;29.08;;;;;;;-2.15;100.00;100022.81;5011239;28;20490;-71
2024/01/14 07:23:58;;;;;;;105.28;45.00;;;;;;;-2.75;100.00;100053.66;5029405;28;20045;-70
2024/01/14 07:26:24;;;;;;;61.30;33.63;;;;;;;-1.89;100.00;100063.25;5029358;28;20049;-69
2024/01/14 07:28:52;;;;;;;45.42;26.55;;;;;;;-2.49;100.00;99994.63;5011338;28;20033;-69
2024/01/14 07:31:21;;;;;;;47.50;28.80;;;;;;;-1.29;100.00;100073.72;5028847;28;20471;-69
2024/01/14 07:33:50;;;;;;;49.88;29.63;;;;;;;-1.38;100.00;100041.97;5027623;28;20028;-69
2024/01/14 07:36:16;;;;;;;43.10;25.15;;;;;;;-2.06;100.00;100035.47;5029207;28;20056;-69
2024/01/14 07:38:42;;;;;;;41.53;24.98;;;;;;;-1.93;100.00;100057.38;5028392;28;20056;-69
2024/01/14 07:41:12;;;;;;;41.45;24.83;;;;;;;-2.03;100.00;100037.19;5009953;28;20036;-69
2024/01/14 07:43:38;;;;;;;42.78;25.88;;;;;;;-2.23;100.00;100061.63;5028504;28;20037;-69
2024/01/14 07:46:04;;;;;;;43.72;26.10;;;;;;;-1.81;100.00;100052.66;5028259;28;20032;-69
2024/01/14 07:48:30;;;;;;;45.78;28.23;;;;;;;-1.42;100.00;100076.75;5027962;28;20034;-68
2024/01/14 07:50:56;;;;;;;46.05;27.88;;;;;;;-0.78;100.00;100082.22;5027851;28;20041;-70
2024/01/14 07:53:22;;;;;;;46.88;28.63;;;;;;;-0.66;100.00;100072.47;5028564;28;20063;-71
2024/01/14 07:55:47;;;;;;;82.45;50.60;;;;;;;-0.65;100.00;100080.81;5027411;28;20570;-70
2024/01/14 07:58:13;;;;;;;129.32;71.35;;;;;;;-0.81;100.00;100049.72;5011089;28;20128;-71
2024/01/14 08:00:38;;;;;;;55.33;35.47;;;;;;;-1.07;100.00;100053.41;5028074;28;20033;-69
2024/01/14 08:03:04;;;;;;;58.45;36.42;;;;;;;-0.81;100.00;100083.81;5010095;28;20063;-69
2024/01/14 08:05:30;;;;;;;64.72;38.20;;;;;;;-0.71;100.00;100028.28;5028475;28;20028;-69
2024/01/14 08:07:55;;;;;;;56.35;32.83;;;;;;;-1.06;100.00;100080.84;5028925;28;20608;-69
2024/01/14 08:10:21;;;;;;;47.92;29.40;;;;;;;-0.65;100.00;100084.13;5010394;28;20029;-70
2024/01/14 08:12:47;;;;;;;49.55;31.40;;;;;;;-1.35;100.00;100027.09;5028171;28;20041;-69
2024/01/14 08:15:14;;;;;;;52.55;31.65;;;;;;;-1.36;100.00;100065.25;5028970;28;20471;-69
2024/01/14 08:17:39;;;;;;;64.03;34.38;;;;;;;-0.57;100.00;100091.75;5026964;28;20029;-69
2024/01/14 08:20:05;;;;;;;47.67;29.33;;;;;;;-0.94;100.00;100092.72;5028071;28;20604;-69
2024/01/14 08:22:32;;;;;;;48.55;30.52;;;;;;;-1.57;100.00;100099.69;5027923;28;20058;-69
2024/01/14 08:24:58;;;;;;;55.33;33.40;;;;;;;-0.79;100.00;100094.69;5028018;28;20038;-69
2024/01/14 08:27:23;;;;;;;53.00;30.45;;;;;;;-1.09;100.00;100069.97;5010522;28;20086;-70
2024/01/14 08:29:49;;;;;;;48.45;28.95;;;;;;;-1.22;100.00;100060.56;5027444;28;20037;-71
2024/01/14 08:32:15;;;;;;;49.35;30.45;;;;;;;-0.85;100.00;100107.84;5027409;28;20040;-70
2024/01/14 08:34:40;;;;;;;57.65;32.55;;;;;;;-0.54;100.00;100076.84;5010194;28;20029;-70
2024/01/14 08:37:06;;;;;;;49.22;30.65;;;;;;;-0.71;100.00;100031.59;5010425;28;20487;-70
2024/01/14 08:39:31;;;;;;;62.28;36.67;;;;;;;-0.54;100.00;100085.16;4993672;28;20041;-70
2024/01/14 08:41:57;;;;;;;55.20;33.70;;;;;;;-0.94;100.00;100097.69;5010557;28;20040;-70
2024/01/14 08:44:22;;;;;;;55.25;32.60;;;;;;;-0.78;100.00;100097.19;5010277;28;20502;-70
2024/01/14 08:46:48;;;;;;;60.22;35.92;;;;;;;-0.61;100.00;100102.47;5027780;28;20140;-70
2024/01/14 08:49:16;;;;;;;68.07;41.58;;;;;;;-0.25;100.00;100068.19;5027796;28;20053;-70
2024/01/14 08:51:42;;;;;;;61.83;39.10;;;;;;;-0.22;100.00;100064.06;5028103;28;20053;-71
2024/01/14 08:54:07;;;;;;;48.78;29.83;;;;;;;-0.82;100.00;100052.19;5027659;28;20083;-69
2024/01/14 08:56:33;;;;;;;46.03;28.15;;;;;;;-0.22;100.00;100081.56;5027441;28;20038;-71
2024/01/14 08:58:59;;;;;;;42.63;26.58;;;;;;;-0.49;100.00;100087.72;5009976;28;20083;-70
2024/01/14 09:01:25;;;;;;;46.88;26.88;;;;;;;-0.80;100.00;100050.56;5027475;28;20037;-69
2024/01/14 09:03:51;;;;;;;50.45;31.02;;;;;;;-0.73;100.00;100092.28;5031685;28;20096;-71
2024/01/14 09:06:16;;;;;;;46.88;29.17;;;;;;;-0.28;100.00;100086.44;5032166;28;20120;-71
2024/01/14 09:08:42;;;;;;;54.58;31.17;;;;;;;0.01;100.00;100094.41;5031669;28;20164;-70
2024/01/14 09:11:10;;;;;;;58.75;36.15;;;;;;;-0.48;100.00;100051.97;5013664;28;20419;-70
2024/01/14 09:13:36;;;;;;;46.45;30.20;;;;;;;-0.05;100.00;100085.19;5031824;28;20033;-70
2024/01/14 09:16:02;;;;;;;48.42;30.23;;;;;;;-0.10;100.00;100071.75;5012741;28;20033;-70
2024/01/14 09:18:27;;;;;;;46.17;27.95;;;;;;;0.08;100.00;100042.91;5013976;28;20098;-71
2024/01/14 09:20:53;;;;;;;45.00;27.77;;;;;;;-0.49;100.00;100046.13;5031619;28;20086;-71
2024/01/14 09:23:19;;;;;;;44.25;27.98;;;;;;;-0.17;100.00;100084.13;5031252;28;20426;-72
2024/01/14 09:25:45;;;;;;;43.45;27.50;;;;;;;-0.16;100.00;100074.16;5031381;28;20039;-72
2024/01/14 09:28:10;;;;;;;44.83;28.33;;;;;;;0.23;100.00;100071.44;5031987;28;20029;-71
2024/01/14 09:30:36;;;;;;;50.13;30.45;;;;;;;0.33;100.00;100063.25;5031142;28;20033;-71
2024/01/14 09:33:01;;;;;;;44.67;27.90;;;;;;;0.21;100.00;100055.59;5031740;28;20033;-71
2024/01/14 09:35:27;;;;;;;45.22;27.63;;;;;;;0.11;100.00;100026.28;5030972;28;20041;-72
2024/01/14 09:37:52;;;;;;;46.00;27.33;;;;;;;0.14;100.00;100020.50;5029642;28;20055;-72
2024/01/14 09:40:18;;;;;;;48.90;29.73;;;;;;;0.70;100.00;100022.91;5013386;28;20022;-72
2024/01/14 09:42:45;;;;;;;45.55;29.63;;;;;;;-0.09;100.00;100006.03;5030934;28;20041;-71
2024/01/14 09:45:11;;;;;;;47.67;29.77;;;;;;;0.81;100.00;100023.88;5012273;28;20120;-72
2024/01/14 09:47:38;;;;;;;47.72;29.75;;;;;;;0.82;100.00;100008.06;5013517;28;20048;-72
2024/01/14 09:50:06;;;;;;;48.70;31.15;;;;;;;0.74;100.00;99992.13;5031213;28;20124;-71
2024/01/14 09:52:32;;;;;;;49.38;30.27;;;;;;;0.60;100.00;100001.13;5030706;28;20033;-71
2024/01/14 09:54:58;;;;;;;48.60;31.77;;;;;;;0.68;100.00;100027.06;5031286;28;20045;-71
2024/01/14 09:57:24;;;;;;;49.35;31.75;;;;;;;0.74;100.00;100002.13;5030766;28;20487;-71
2024/01/14 09:59:50;;;;;;;42.75;27.50;;;;;;;0.73;100.00;100007.13;5013071;28;20033;-71
2024/01/14 10:02:17;;;;;;;54.13;32.30;;;;;;;0.87;100.00;100005.63;5013521;28;20132;-71
2024/01/14 10:04:43;;;;;;;52.47;31.67;;;;;;;0.91;100.00;100006.47;5031520;28;20055;-71
2024/01/14 10:07:09;;;;;;;44.53;27.88;;;;;;;0.30;100.00;99979.91;5030603;28;20033;-72
2024/01/14 10:09:35;;;;;;;44.58;28.95;;;;;;;0.59;100.00;99941.09;5011314;28;20044;-71
2024/01/14 10:12:01;;;;;;;50.90;33.33;;;;;;;0.65;100.00;99986.19;5029849;28;21081;-70
2024/01/14 10:14:27;;;;;;;63.65;41.47;;;;;;;0.90;100.00;99970.59;5012339;28;20056;-73
2024/01/14 10:16:57;;;;;;;51.50;33.40;;;;;;;1.11;100.00;99958.28;5013159;28;20715;-71
2024/01/14 10:19:23;;;;;;;57.58;37.47;;;;;;;1.45;100.00;99949.41;5030229;28;20060;-71
2024/01/14 10:21:52;;;;;;;47.08;30.35;;;;;;;0.73;100.00;99949.59;5030528;28;20076;-71
2024/01/14 10:24:18;;;;;;;47.83;32.05;;;;;;;1.45;100.00;99942.75;5012705;28;20037;-71
2024/01/14 10:26:44;;;;;;;56.40;33.45;;;;;;;1.41;100.00;99912.66;5030411;28;20040;-70
2024/01/14 10:29:09;;;;;;;54.75;32.28;;;;;;;1.86;100.00;99979.78;5029739;28;20043;-71
2024/01/14 10:31:35;;;;;;;40.10;26.25;;;;;;;1.54;100.00;99950.34;5030731;28;20104;-71
2024/01/14 10:34:02;;;;;;;40.72;26.20;;;;;;;1.59;100.00;99916.16;5030603;28;20026;-71
2024/01/14 10:36:31;;;;;;;48.13;31.25;;;;;;;2.27;100.00;99960.81;5030640;28;20033;-73
2024/01/14 10:38:57;;;;;;;47.13;29.80;;;;;;;2.01;100.00;99944.78;5030235;28;20053;-72
2024/01/14 10:41:24;;;;;;;43.53;29.00;;;;;;;1.87;100.00;99941.34;5030016;28;20037;-72
2024/01/14 10:43:50;;;;;;;39.97;25.30;;;;;;;2.30;100.00;99931.56;5030145;28;20025;-73
2024/01/14 10:46:16;;;;;;;47.97;29.95;;;;;;;2.05;100.00;99926.44;5030681;28;20048;-72
2024/01/14 10:48:44;;;;;;;43.10;26.75;;;;;;;2.30;100.00;99915.69;5011632;28;20482;-72
2024/01/14 10:51:13;;;;;;;43.13;27.15;;;;;;;2.42;100.00;99894.00;5029563;28;20037;-72
2024/01/14 10:53:52;;;;;;;53.47;30.92;;;;;;;1.97;100.00;99901.34;5028646;28;20057;-74
2024/01/14 10:56:22;;;;;;;42.65;25.90;;;;;;;1.94;100.00;99891.28;5029080;28;20484;-71
2024/01/14 10:58:53;;;;;;;54.10;33.07;;;;;;;2.08;100.00;99883.84;5011374;28;20091;-72